sensor_id;sensor_type;location;lat;lon;timestamp;P1;durP1;ratioP1;P2;durP2;ratioP2
56860;SDS011;42744;51.094;3.490;2022-10-14T00:00:36;18.43;;;15.50;;
56860;SDS011;42744;51.094;3.490;2022-10-14T00:03:02;19.60;;;16.23;;
56860;SDS011;42744;51.094;3.490;2022-10-14T00:05:28;20.50;;;15.50;;
56860;SDS011;42744;51.094;3.490;2022-10-14T00:07:54;19.30;;;16.80;;
56860;SDS011;42744;51.094;3.490;2022-10-14T00:10:21;18.03;;;15.77;;
56860;SDS011;42744;51.094;3.490;2022-10-14T00:12:46;19.10;;;15.87;;
56860;SDS011;42744;51.094;3.490;2022-10-14T00:15:14;19.63;;;16.30;;
56860;SDS011;42744;51.094;3.490;2022-10-14T00:17:42;20.17;;;16.13;;
56860;SDS011;42744;51.094;3.490;2022-10-14T00:20:08;17.77;;;15.80;;
56860;SDS011;42744;51.094;3.490;2022-10-14T00:22:34;18.33;;;16.33;;
56860;SDS011;42744;51.094;3.490;2022-10-14T00:25:00;18.17;;;16.27;;
56860;SDS011;42744;51.094;3.490;2022-10-14T00:27:26;19.27;;;15.87;;
56860;SDS011;42744;51.094;3.490;2022-10-14T00:29:52;20.47;;;16.10;;
56860;SDS011;42744;51.094;3.490;2022-10-14T00:32:18;20.27;;;16.10;;
56860;SDS011;42744;51.094;3.490;2022-10-14T00:34:44;19.57;;;16.47;;
56860;SDS011;42744;51.094;3.490;2022-10-14T00:37:10;19.87;;;16.00;;
56860;SDS011;42744;51.094;3.490;2022-10-14T00:39:36;18.70;;;15.97;;
56860;SDS011;42744;51.094;3.490;2022-10-14T00:42:02;18.27;;;16.27;;
56860;SDS011;42744;51.094;3.490;2022-10-14T00:46:55;23.03;;;15.33;;
56860;SDS011;42744;51.094;3.490;2022-10-14T00:49:31;18.83;;;15.90;;
56860;SDS011;42744;51.094;3.490;2022-10-14T00:52:05;20.97;;;16.33;;
56860;SDS011;42744;51.094;3.490;2022-10-14T00:54:37;18.83;;;16.43;;
56860;SDS011;42744;51.094;3.490;2022-10-14T00:57:05;20.57;;;15.70;;
56860;SDS011;42744;51.094;3.490;2022-10-14T00:59:32;18.50;;;15.97;;
56860;SDS011;42744;51.094;3.490;2022-10-14T01:01:58;20.20;;;17.00;;
56860;SDS011;42744;51.094;3.490;2022-10-14T01:04:25;22.30;;;16.73;;
56860;SDS011;42744;51.094;3.490;2022-10-14T01:09:52;20.33;;;15.57;;
56860;SDS011;42744;51.094;3.490;2022-10-14T01:12:38;20.43;;;15.37;;
56860;SDS011;42744;51.094;3.490;2022-10-14T01:18:25;19.30;;;16.23;;
56860;SDS011;42744;51.094;3.490;2022-10-14T01:31:59;19.23;;;15.90;;
56860;SDS011;42744;51.094;3.490;2022-10-14T01:34:43;21.73;;;16.23;;
56860;SDS011;42744;51.094;3.490;2022-10-14T01:37:19;21.47;;;16.90;;
56860;SDS011;42744;51.094;3.490;2022-10-14T01:39:53;21.40;;;16.17;;
56860;SDS011;42744;51.094;3.490;2022-10-14T01:42:28;20.47;;;16.50;;
56860;SDS011;42744;51.094;3.490;2022-10-14T01:45:00;20.87;;;16.43;;
56860;SDS011;42744;51.094;3.490;2022-10-14T01:47:31;20.77;;;15.50;;
56860;SDS011;42744;51.094;3.490;2022-10-14T01:50:10;19.47;;;15.53;;
56860;SDS011;42744;51.094;3.490;2022-10-14T01:52:43;20.63;;;15.53;;
56860;SDS011;42744;51.094;3.490;2022-10-14T01:55:16;20.80;;;16.57;;
56860;SDS011;42744;51.094;3.490;2022-10-14T01:57:45;20.63;;;16.37;;
56860;SDS011;42744;51.094;3.490;2022-10-14T02:00:15;22.53;;;16.40;;
56860;SDS011;42744;51.094;3.490;2022-10-14T02:02:41;24.20;;;17.30;;
56860;SDS011;42744;51.094;3.490;2022-10-14T02:05:09;21.30;;;16.93;;
56860;SDS011;42744;51.094;3.490;2022-10-14T02:07:47;20.93;;;15.70;;
56860;SDS011;42744;51.094;3.490;2022-10-14T02:12:57;23.37;;;15.87;;
56860;SDS011;42744;51.094;3.490;2022-10-14T02:15:40;17.90;;;14.77;;
56860;SDS011;42744;51.094;3.490;2022-10-14T02:18:29;26.50;;;16.53;;
56860;SDS011;42744;51.094;3.490;2022-10-14T02:21:11;22.47;;;15.97;;
56860;SDS011;42744;51.094;3.490;2022-10-14T02:23:50;22.13;;;16.20;;
56860;SDS011;42744;51.094;3.490;2022-10-14T02:26:29;19.97;;;15.27;;
56860;SDS011;42744;51.094;3.490;2022-10-14T02:28:57;19.00;;;15.20;;
56860;SDS011;42744;51.094;3.490;2022-10-14T02:31:25;23.33;;;16.33;;
56860;SDS011;42744;51.094;3.490;2022-10-14T02:33:55;25.43;;;15.90;;
56860;SDS011;42744;51.094;3.490;2022-10-14T02:36:25;22.97;;;16.30;;
56860;SDS011;42744;51.094;3.490;2022-10-14T02:38:52;20.40;;;15.30;;
56860;SDS011;42744;51.094;3.490;2022-10-14T02:41:22;20.60;;;17.10;;
56860;SDS011;42744;51.094;3.490;2022-10-14T02:43:49;23.03;;;16.70;;
56860;SDS011;42744;51.094;3.490;2022-10-14T02:46:20;20.90;;;16.00;;
56860;SDS011;42744;51.094;3.490;2022-10-14T02:48:47;23.17;;;17.67;;
56860;SDS011;42744;51.094;3.490;2022-10-14T02:51:14;22.83;;;16.20;;
56860;SDS011;42744;51.094;3.490;2022-10-14T02:53:41;21.03;;;16.60;;
56860;SDS011;42744;51.094;3.490;2022-10-14T02:56:08;21.87;;;16.73;;
56860;SDS011;42744;51.094;3.490;2022-10-14T02:58:35;23.17;;;17.47;;
56860;SDS011;42744;51.094;3.490;2022-10-14T03:01:03;24.77;;;18.20;;
56860;SDS011;42744;51.094;3.490;2022-10-14T03:03:29;23.93;;;17.57;;
56860;SDS011;42744;51.094;3.490;2022-10-14T03:05:56;24.10;;;17.00;;
56860;SDS011;42744;51.094;3.490;2022-10-14T03:08:22;24.23;;;18.07;;
56860;SDS011;42744;51.094;3.490;2022-10-14T03:10:48;24.77;;;18.57;;
56860;SDS011;42744;51.094;3.490;2022-10-14T03:13:14;24.13;;;17.93;;
56860;SDS011;42744;51.094;3.490;2022-10-14T03:15:41;27.10;;;17.67;;
56860;SDS011;42744;51.094;3.490;2022-10-14T03:18:08;24.40;;;18.63;;
56860;SDS011;42744;51.094;3.490;2022-10-14T03:20:34;26.00;;;18.57;;
56860;SDS011;42744;51.094;3.490;2022-10-14T03:23:02;25.07;;;18.40;;
56860;SDS011;42744;51.094;3.490;2022-10-14T03:25:31;24.53;;;18.20;;
56860;SDS011;42744;51.094;3.490;2022-10-14T03:27:58;26.33;;;18.33;;
56860;SDS011;42744;51.094;3.490;2022-10-14T03:30:28;25.17;;;18.13;;
56860;SDS011;42744;51.094;3.490;2022-10-14T03:32:55;26.47;;;19.07;;
56860;SDS011;42744;51.094;3.490;2022-10-14T03:35:21;30.40;;;20.43;;
56860;SDS011;42744;51.094;3.490;2022-10-14T03:37:48;25.57;;;18.47;;
56860;SDS011;42744;51.094;3.490;2022-10-14T03:40:14;26.87;;;19.23;;
56860;SDS011;42744;51.094;3.490;2022-10-14T03:42:40;28.53;;;19.40;;
56860;SDS011;42744;51.094;3.490;2022-10-14T03:45:07;29.13;;;18.87;;
56860;SDS011;42744;51.094;3.490;2022-10-14T03:47:35;31.70;;;20.27;;
56860;SDS011;42744;51.094;3.490;2022-10-14T03:50:01;31.70;;;20.03;;
56860;SDS011;42744;51.094;3.490;2022-10-14T03:52:29;27.97;;;19.87;;
56860;SDS011;42744;51.094;3.490;2022-10-14T03:54:57;27.07;;;18.80;;
56860;SDS011;42744;51.094;3.490;2022-10-14T03:57:24;27.80;;;19.40;;
56860;SDS011;42744;51.094;3.490;2022-10-14T03:59:52;29.57;;;18.50;;
56860;SDS011;42744;51.094;3.490;2022-10-14T04:02:19;27.90;;;18.60;;
56860;SDS011;42744;51.094;3.490;2022-10-14T04:04:45;31.93;;;20.67;;
56860;SDS011;42744;51.094;3.490;2022-10-14T04:07:12;30.60;;;19.90;;
56860;SDS011;42744;51.094;3.490;2022-10-14T04:09:40;28.83;;;20.07;;
56860;SDS011;42744;51.094;3.490;2022-10-14T04:12:07;31.93;;;19.90;;
56860;SDS011;42744;51.094;3.490;2022-10-14T04:14:34;32.60;;;20.80;;
56860;SDS011;42744;51.094;3.490;2022-10-14T04:17:00;30.97;;;20.43;;
56860;SDS011;42744;51.094;3.490;2022-10-14T04:19:26;29.33;;;18.87;;
56860;SDS011;42744;51.094;3.490;2022-10-14T04:21:52;31.87;;;19.80;;
56860;SDS011;42744;51.094;3.490;2022-10-14T04:24:19;32.23;;;20.33;;
56860;SDS011;42744;51.094;3.490;2022-10-14T04:26:50;30.43;;;20.10;;
56860;SDS011;42744;51.094;3.490;2022-10-14T04:29:18;30.80;;;18.87;;
56860;SDS011;42744;51.094;3.490;2022-10-14T04:31:45;31.13;;;19.33;;
56860;SDS011;42744;51.094;3.490;2022-10-14T04:34:12;30.37;;;19.57;;
56860;SDS011;42744;51.094;3.490;2022-10-14T04:36:38;33.37;;;20.13;;
56860;SDS011;42744;51.094;3.490;2022-10-14T04:39:06;30.27;;;19.67;;
56860;SDS011;42744;51.094;3.490;2022-10-14T04:41:33;33.93;;;20.57;;
56860;SDS011;42744;51.094;3.490;2022-10-14T04:43:59;36.30;;;20.60;;
56860;SDS011;42744;51.094;3.490;2022-10-14T04:46:26;34.83;;;20.80;;
56860;SDS011;42744;51.094;3.490;2022-10-14T04:48:53;32.23;;;20.17;;
56860;SDS011;42744;51.094;3.490;2022-10-14T04:51:19;37.40;;;21.03;;
56860;SDS011;42744;51.094;3.490;2022-10-14T04:53:46;34.43;;;21.20;;
56860;SDS011;42744;51.094;3.490;2022-10-14T04:56:14;36.20;;;21.13;;
56860;SDS011;42744;51.094;3.490;2022-10-14T04:58:46;36.87;;;21.60;;
56860;SDS011;42744;51.094;3.490;2022-10-14T05:01:12;31.63;;;20.33;;
56860;SDS011;42744;51.094;3.490;2022-10-14T05:03:42;35.83;;;21.67;;
56860;SDS011;42744;51.094;3.490;2022-10-14T05:06:09;38.80;;;21.53;;
56860;SDS011;42744;51.094;3.490;2022-10-14T05:08:38;39.63;;;22.17;;
56860;SDS011;42744;51.094;3.490;2022-10-14T05:11:06;38.13;;;21.80;;
56860;SDS011;42744;51.094;3.490;2022-10-14T05:13:32;36.83;;;22.23;;
56860;SDS011;42744;51.094;3.490;2022-10-14T05:16:00;36.87;;;21.67;;
56860;SDS011;42744;51.094;3.490;2022-10-14T05:18:27;41.33;;;21.70;;
56860;SDS011;42744;51.094;3.490;2022-10-14T05:20:55;37.53;;;21.07;;
56860;SDS011;42744;51.094;3.490;2022-10-14T05:23:25;41.03;;;21.13;;
56860;SDS011;42744;51.094;3.490;2022-10-14T05:25:52;41.43;;;22.50;;
56860;SDS011;42744;51.094;3.490;2022-10-14T05:28:19;42.27;;;22.27;;
56860;SDS011;42744;51.094;3.490;2022-10-14T05:30:46;40.80;;;22.13;;
56860;SDS011;42744;51.094;3.490;2022-10-14T05:33:12;39.57;;;22.07;;
56860;SDS011;42744;51.094;3.490;2022-10-14T05:35:39;36.67;;;21.47;;
56860;SDS011;42744;51.094;3.490;2022-10-14T05:38:07;43.70;;;21.77;;
56860;SDS011;42744;51.094;3.490;2022-10-14T05:40:33;42.23;;;23.47;;
56860;SDS011;42744;51.094;3.490;2022-10-14T05:42:59;46.57;;;23.73;;
56860;SDS011;42744;51.094;3.490;2022-10-14T05:45:26;43.30;;;23.10;;
56860;SDS011;42744;51.094;3.490;2022-10-14T05:47:52;43.80;;;22.57;;
56860;SDS011;42744;51.094;3.490;2022-10-14T05:50:19;44.60;;;21.87;;
56860;SDS011;42744;51.094;3.490;2022-10-14T05:52:47;45.83;;;21.10;;
56860;SDS011;42744;51.094;3.490;2022-10-14T05:55:13;38.27;;;21.70;;
56860;SDS011;42744;51.094;3.490;2022-10-14T05:57:40;37.60;;;20.80;;
56860;SDS011;42744;51.094;3.490;2022-10-14T06:00:10;42.47;;;21.13;;
56860;SDS011;42744;51.094;3.490;2022-10-14T06:02:42;36.33;;;18.83;;
56860;SDS011;42744;51.094;3.490;2022-10-14T06:05:10;31.30;;;16.90;;
56860;SDS011;42744;51.094;3.490;2022-10-14T06:07:36;37.90;;;18.20;;
56860;SDS011;42744;51.094;3.490;2022-10-14T06:10:02;32.17;;;16.90;;
56860;SDS011;42744;51.094;3.490;2022-10-14T06:12:29;26.03;;;15.17;;
56860;SDS011;42744;51.094;3.490;2022-10-14T06:14:55;26.07;;;14.63;;
56860;SDS011;42744;51.094;3.490;2022-10-14T06:17:20;21.73;;;13.50;;
56860;SDS011;42744;51.094;3.490;2022-10-14T06:19:47;19.63;;;12.77;;
56860;SDS011;42744;51.094;3.490;2022-10-14T06:22:12;21.53;;;14.20;;
56860;SDS011;42744;51.094;3.490;2022-10-14T06:24:39;18.97;;;13.67;;
56860;SDS011;42744;51.094;3.490;2022-10-14T06:27:07;17.70;;;11.63;;
56860;SDS011;42744;51.094;3.490;2022-10-14T06:29:33;17.33;;;11.83;;
56860;SDS011;42744;51.094;3.490;2022-10-14T06:32:05;18.50;;;12.07;;
56860;SDS011;42744;51.094;3.490;2022-10-14T06:34:33;16.90;;;11.23;;
56860;SDS011;42744;51.094;3.490;2022-10-14T06:36:59;16.47;;;12.17;;
56860;SDS011;42744;51.094;3.490;2022-10-14T06:39:26;17.13;;;11.13;;
56860;SDS011;42744;51.094;3.490;2022-10-14T06:41:52;16.53;;;12.20;;
56860;SDS011;42744;51.094;3.490;2022-10-14T06:44:19;17.23;;;11.03;;
56860;SDS011;42744;51.094;3.490;2022-10-14T06:46:45;16.97;;;11.63;;
56860;SDS011;42744;51.094;3.490;2022-10-14T06:49:11;17.03;;;11.50;;
56860;SDS011;42744;51.094;3.490;2022-10-14T06:51:37;17.73;;;12.03;;
56860;SDS011;42744;51.094;3.490;2022-10-14T06:54:04;16.73;;;12.00;;
56860;SDS011;42744;51.094;3.490;2022-10-14T06:56:30;18.10;;;11.20;;
56860;SDS011;42744;51.094;3.490;2022-10-14T06:58:57;16.20;;;11.07;;
56860;SDS011;42744;51.094;3.490;2022-10-14T07:01:23;16.47;;;12.00;;
56860;SDS011;42744;51.094;3.490;2022-10-14T07:03:50;15.90;;;11.00;;
56860;SDS011;42744;51.094;3.490;2022-10-14T07:06:16;16.10;;;11.13;;
56860;SDS011;42744;51.094;3.490;2022-10-14T07:08:42;16.03;;;11.67;;
56860;SDS011;42744;51.094;3.490;2022-10-14T07:11:08;15.73;;;10.93;;
56860;SDS011;42744;51.094;3.490;2022-10-14T07:13:34;16.57;;;11.17;;
56860;SDS011;42744;51.094;3.490;2022-10-14T07:16:00;17.00;;;11.20;;
56860;SDS011;42744;51.094;3.490;2022-10-14T07:18:26;17.23;;;11.50;;
56860;SDS011;42744;51.094;3.490;2022-10-14T07:20:52;15.73;;;11.03;;
56860;SDS011;42744;51.094;3.490;2022-10-14T07:23:18;15.90;;;10.77;;
56860;SDS011;42744;51.094;3.490;2022-10-14T07:25:44;16.30;;;11.23;;
56860;SDS011;42744;51.094;3.490;2022-10-14T07:28:10;19.50;;;12.63;;
56860;SDS011;42744;51.094;3.490;2022-10-14T07:30:36;18.07;;;12.80;;
56860;SDS011;42744;51.094;3.490;2022-10-14T07:33:02;19.03;;;12.63;;
56860;SDS011;42744;51.094;3.490;2022-10-14T07:35:28;17.17;;;11.33;;
56860;SDS011;42744;51.094;3.490;2022-10-14T07:37:54;14.90;;;10.90;;
56860;SDS011;42744;51.094;3.490;2022-10-14T07:40:22;15.63;;;11.37;;
56860;SDS011;42744;51.094;3.490;2022-10-14T07:42:49;14.27;;;10.53;;
56860;SDS011;42744;51.094;3.490;2022-10-14T07:45:15;14.77;;;10.93;;
56860;SDS011;42744;51.094;3.490;2022-10-14T07:47:43;16.60;;;10.80;;
56860;SDS011;42744;51.094;3.490;2022-10-14T07:50:12;14.93;;;10.20;;
56860;SDS011;42744;51.094;3.490;2022-10-14T07:52:38;11.80;;;9.80;;
56860;SDS011;42744;51.094;3.490;2022-10-14T07:55:04;10.50;;;8.97;;
56860;SDS011;42744;51.094;3.490;2022-10-14T07:57:30;13.77;;;9.37;;
56860;SDS011;42744;51.094;3.490;2022-10-14T07:59:56;14.03;;;9.20;;
56860;SDS011;42744;51.094;3.490;2022-10-14T08:02:23;11.90;;;9.13;;
56860;SDS011;42744;51.094;3.490;2022-10-14T08:04:52;12.03;;;8.30;;
56860;SDS011;42744;51.094;3.490;2022-10-14T08:07:20;10.73;;;9.00;;
56860;SDS011;42744;51.094;3.490;2022-10-14T08:09:46;12.03;;;8.67;;
56860;SDS011;42744;51.094;3.490;2022-10-14T08:12:13;10.23;;;8.67;;
56860;SDS011;42744;51.094;3.490;2022-10-14T08:14:39;10.43;;;8.43;;
56860;SDS011;42744;51.094;3.490;2022-10-14T08:17:05;10.57;;;8.67;;
56860;SDS011;42744;51.094;3.490;2022-10-14T08:19:31;10.30;;;8.20;;
56860;SDS011;42744;51.094;3.490;2022-10-14T08:21:57;12.03;;;8.70;;
56860;SDS011;42744;51.094;3.490;2022-10-14T08:24:23;11.47;;;8.57;;
56860;SDS011;42744;51.094;3.490;2022-10-14T08:26:53;11.80;;;8.90;;
56860;SDS011;42744;51.094;3.490;2022-10-14T08:29:21;11.20;;;8.43;;
56860;SDS011;42744;51.094;3.490;2022-10-14T08:31:47;11.53;;;7.97;;
56860;SDS011;42744;51.094;3.490;2022-10-14T08:34:14;11.43;;;8.60;;
56860;SDS011;42744;51.094;3.490;2022-10-14T08:36:40;12.23;;;8.33;;
56860;SDS011;42744;51.094;3.490;2022-10-14T08:39:06;10.80;;;8.53;;
56860;SDS011;42744;51.094;3.490;2022-10-14T08:46:52;13.03;;;8.83;;
56860;SDS011;42744;51.094;3.490;2022-10-14T08:52:33;12.03;;;8.97;;
56860;SDS011;42744;51.094;3.490;2022-10-14T08:55:13;13.40;;;9.83;;
56860;SDS011;42744;51.094;3.490;2022-10-14T09:00:52;14.87;;;10.53;;
56860;SDS011;42744;51.094;3.490;2022-10-14T09:03:21;14.63;;;10.27;;
56860;SDS011;42744;51.094;3.490;2022-10-14T09:06:01;12.53;;;10.03;;
56860;SDS011;42744;51.094;3.490;2022-10-14T09:08:35;16.73;;;11.23;;
56860;SDS011;42744;51.094;3.490;2022-10-14T09:11:12;15.20;;;10.90;;
56860;SDS011;42744;51.094;3.490;2022-10-14T09:13:43;16.07;;;10.93;;
56860;SDS011;42744;51.094;3.490;2022-10-14T09:16:16;16.00;;;11.50;;
56860;SDS011;42744;51.094;3.490;2022-10-14T09:18:48;16.43;;;11.23;;
56860;SDS011;42744;51.094;3.490;2022-10-14T09:24:11;18.60;;;13.17;;
56860;SDS011;42744;51.094;3.490;2022-10-14T09:26:40;20.53;;;13.83;;
56860;SDS011;42744;51.094;3.490;2022-10-14T09:29:14;19.93;;;14.77;;
56860;SDS011;42744;51.094;3.490;2022-10-14T09:31:43;22.73;;;15.30;;
56860;SDS011;42744;51.094;3.490;2022-10-14T09:34:12;20.97;;;15.70;;
56860;SDS011;42744;51.094;3.490;2022-10-14T09:36:44;21.57;;;16.23;;
56860;SDS011;42744;51.094;3.490;2022-10-14T09:39:12;20.10;;;16.00;;
56860;SDS011;42744;51.094;3.490;2022-10-14T09:41:39;23.90;;;17.27;;
56860;SDS011;42744;51.094;3.490;2022-10-14T09:44:15;25.97;;;17.33;;
56860;SDS011;42744;51.094;3.490;2022-10-14T09:46:47;22.50;;;17.53;;
56860;SDS011;42744;51.094;3.490;2022-10-14T09:49:26;25.17;;;18.43;;
56860;SDS011;42744;51.094;3.490;2022-10-14T09:51:59;28.07;;;19.70;;
56860;SDS011;42744;51.094;3.490;2022-10-14T09:54:27;25.10;;;18.50;;
56860;SDS011;42744;51.094;3.490;2022-10-14T09:56:59;29.40;;;19.03;;
56860;SDS011;42744;51.094;3.490;2022-10-14T09:59:37;26.70;;;20.33;;
56860;SDS011;42744;51.094;3.490;2022-10-14T10:02:30;29.07;;;20.00;;
56860;SDS011;42744;51.094;3.490;2022-10-14T10:05:06;26.90;;;19.50;;
56860;SDS011;42744;51.094;3.490;2022-10-14T10:10:28;27.03;;;20.07;;
56860;SDS011;42744;51.094;3.490;2022-10-14T10:12:58;24.60;;;19.17;;
56860;SDS011;42744;51.094;3.490;2022-10-14T10:15:24;26.00;;;19.70;;
56860;SDS011;42744;51.094;3.490;2022-10-14T10:17:50;30.40;;;20.83;;
56860;SDS011;42744;51.094;3.490;2022-10-14T10:20:22;27.20;;;19.83;;
56860;SDS011;42744;51.094;3.490;2022-10-14T10:22:56;30.10;;;21.57;;
56860;SDS011;42744;51.094;3.490;2022-10-14T10:25:41;31.23;;;21.87;;
56860;SDS011;42744;51.094;3.490;2022-10-14T10:28:14;30.87;;;22.27;;
56860;SDS011;42744;51.094;3.490;2022-10-14T10:36:30;33.03;;;21.67;;
56860;SDS011;42744;51.094;3.490;2022-10-14T10:39:19;29.47;;;21.57;;
56860;SDS011;42744;51.094;3.490;2022-10-14T10:44:53;29.03;;;21.13;;
56860;SDS011;42744;51.094;3.490;2022-10-14T10:52:55;25.57;;;19.27;;
56860;SDS011;42744;51.094;3.490;2022-10-14T11:01:42;23.67;;;18.33;;
56860;SDS011;42744;51.094;3.490;2022-10-14T11:04:32;19.27;;;15.90;;
56860;SDS011;42744;51.094;3.490;2022-10-14T11:13:03;18.40;;;15.93;;
56860;SDS011;42744;51.094;3.490;2022-10-14T11:18:32;19.07;;;15.63;;
56860;SDS011;42744;51.094;3.490;2022-10-14T11:21:14;17.10;;;13.57;;
56860;SDS011;42744;51.094;3.490;2022-10-14T11:42:49;14.17;;;12.77;;
56860;SDS011;42744;51.094;3.490;2022-10-14T11:48:07;14.60;;;13.10;;
56860;SDS011;42744;51.094;3.490;2022-10-14T11:50:43;14.77;;;13.03;;
56860;SDS011;42744;51.094;3.490;2022-10-14T11:53:20;18.27;;;13.37;;
56860;SDS011;42744;51.094;3.490;2022-10-14T11:56:03;16.40;;;14.70;;
56860;SDS011;42744;51.094;3.490;2022-10-14T11:58:35;15.00;;;13.47;;
56860;SDS011;42744;51.094;3.490;2022-10-14T12:01:02;14.10;;;12.53;;
56860;SDS011;42744;51.094;3.490;2022-10-14T12:03:53;13.77;;;12.47;;
56860;SDS011;42744;51.094;3.490;2022-10-14T12:09:24;12.73;;;11.43;;
56860;SDS011;42744;51.094;3.490;2022-10-14T12:12:07;13.83;;;12.40;;
56860;SDS011;42744;51.094;3.490;2022-10-14T12:17:26;13.17;;;11.77;;
56860;SDS011;42744;51.094;3.490;2022-10-14T12:19:54;14.10;;;12.17;;
56860;SDS011;42744;51.094;3.490;2022-10-14T12:22:22;12.50;;;10.40;;
56860;SDS011;42744;51.094;3.490;2022-10-14T12:24:52;11.47;;;9.27;;
56860;SDS011;42744;51.094;3.490;2022-10-14T12:27:22;12.13;;;9.17;;
56860;SDS011;42744;51.094;3.490;2022-10-14T12:29:51;10.67;;;9.57;;
56860;SDS011;42744;51.094;3.490;2022-10-14T12:34:51;9.60;;;8.33;;
56860;SDS011;42744;51.094;3.490;2022-10-14T12:42:54;8.30;;;7.40;;
56860;SDS011;42744;51.094;3.490;2022-10-14T12:45:23;13.50;;;10.27;;
56860;SDS011;42744;51.094;3.490;2022-10-14T12:48:02;9.20;;;7.80;;
56860;SDS011;42744;51.094;3.490;2022-10-14T12:50:47;9.73;;;7.50;;
56860;SDS011;42744;51.094;3.490;2022-10-14T12:53:22;9.77;;;7.67;;
56860;SDS011;42744;51.094;3.490;2022-10-14T12:55:54;11.57;;;8.00;;
56860;SDS011;42744;51.094;3.490;2022-10-14T13:00:57;10.77;;;8.13;;
56860;SDS011;42744;51.094;3.490;2022-10-14T13:03:54;10.83;;;8.47;;
56860;SDS011;42744;51.094;3.490;2022-10-14T13:06:31;11.27;;;8.97;;
56860;SDS011;42744;51.094;3.490;2022-10-14T13:11:38;11.87;;;9.50;;
56860;SDS011;42744;51.094;3.490;2022-10-14T13:24:31;13.10;;;10.17;;
56860;SDS011;42744;51.094;3.490;2022-10-14T13:27:31;12.03;;;10.57;;
56860;SDS011;42744;51.094;3.490;2022-10-14T13:30:11;12.80;;;11.03;;
56860;SDS011;42744;51.094;3.490;2022-10-14T13:33:16;12.13;;;10.63;;
56860;SDS011;42744;51.094;3.490;2022-10-14T13:38:30;14.33;;;11.17;;
56860;SDS011;42744;51.094;3.490;2022-10-14T13:40:58;14.40;;;12.40;;
56860;SDS011;42744;51.094;3.490;2022-10-14T13:43:28;14.37;;;12.17;;
56860;SDS011;42744;51.094;3.490;2022-10-14T13:48:36;13.47;;;11.77;;
56860;SDS011;42744;51.094;3.490;2022-10-14T13:51:26;16.20;;;12.97;;
56860;SDS011;42744;51.094;3.490;2022-10-14T13:53:57;17.27;;;12.80;;
56860;SDS011;42744;51.094;3.490;2022-10-14T13:56:32;14.87;;;12.83;;
56860;SDS011;42744;51.094;3.490;2022-10-14T13:58:58;16.63;;;14.13;;
56860;SDS011;42744;51.094;3.490;2022-10-14T14:01:30;14.13;;;12.57;;
56860;SDS011;42744;51.094;3.490;2022-10-14T14:04:00;16.20;;;12.47;;
56860;SDS011;42744;51.094;3.490;2022-10-14T14:06:27;14.67;;;12.53;;
56860;SDS011;42744;51.094;3.490;2022-10-14T14:08:54;17.67;;;13.20;;
56860;SDS011;42744;51.094;3.490;2022-10-14T14:11:24;15.00;;;13.33;;
56860;SDS011;42744;51.094;3.490;2022-10-14T14:16:28;14.50;;;13.10;;
56860;SDS011;42744;51.094;3.490;2022-10-14T14:19:21;14.97;;;13.40;;
56860;SDS011;42744;51.094;3.490;2022-10-14T14:22:03;15.37;;;13.30;;
56860;SDS011;42744;51.094;3.490;2022-10-14T14:24:40;15.80;;;12.93;;
56860;SDS011;42744;51.094;3.490;2022-10-14T14:27:11;15.00;;;12.87;;
56860;SDS011;42744;51.094;3.490;2022-10-14T14:29:40;14.53;;;13.03;;
56860;SDS011;42744;51.094;3.490;2022-10-14T14:32:15;15.67;;;13.23;;
56860;SDS011;42744;51.094;3.490;2022-10-14T14:34:45;16.13;;;13.30;;
56860;SDS011;42744;51.094;3.490;2022-10-14T14:37:26;17.17;;;14.80;;
56860;SDS011;42744;51.094;3.490;2022-10-14T14:40:03;16.10;;;14.40;;
56860;SDS011;42744;51.094;3.490;2022-10-14T14:42:32;16.47;;;14.70;;
56860;SDS011;42744;51.094;3.490;2022-10-14T14:45:20;14.17;;;12.70;;
56860;SDS011;42744;51.094;3.490;2022-10-14T14:47:50;15.90;;;12.67;;
56860;SDS011;42744;51.094;3.490;2022-10-14T14:50:21;15.47;;;10.80;;
56860;SDS011;42744;51.094;3.490;2022-10-14T14:52:51;11.10;;;9.57;;
56860;SDS011;42744;51.094;3.490;2022-10-14T14:55:32;11.00;;;9.47;;
56860;SDS011;42744;51.094;3.490;2022-10-14T14:58:02;10.20;;;8.77;;
56860;SDS011;42744;51.094;3.490;2022-10-14T15:00:30;11.67;;;9.10;;
56860;SDS011;42744;51.094;3.490;2022-10-14T15:03:00;13.87;;;9.77;;
56860;SDS011;42744;51.094;3.490;2022-10-14T15:05:28;11.53;;;8.93;;
56860;SDS011;42744;51.094;3.490;2022-10-14T15:07:54;13.17;;;9.80;;
56860;SDS011;42744;51.094;3.490;2022-10-14T15:10:25;13.33;;;9.43;;
56860;SDS011;42744;51.094;3.490;2022-10-14T15:12:54;12.63;;;9.27;;
56860;SDS011;42744;51.094;3.490;2022-10-14T15:20:34;15.10;;;10.37;;
56860;SDS011;42744;51.094;3.490;2022-10-14T15:23:01;11.53;;;8.97;;
56860;SDS011;42744;51.094;3.490;2022-10-14T15:31:36;12.37;;;8.90;;
56860;SDS011;42744;51.094;3.490;2022-10-14T15:34:03;11.80;;;9.30;;
56860;SDS011;42744;51.094;3.490;2022-10-14T15:36:31;11.63;;;10.20;;
56860;SDS011;42744;51.094;3.490;2022-10-14T15:38:58;14.07;;;9.83;;
56860;SDS011;42744;51.094;3.490;2022-10-14T15:41:27;12.73;;;10.40;;
56860;SDS011;42744;51.094;3.490;2022-10-14T15:43:53;13.13;;;9.53;;
56860;SDS011;42744;51.094;3.490;2022-10-14T15:46:19;12.73;;;9.90;;
56860;SDS011;42744;51.094;3.490;2022-10-14T15:49:11;13.53;;;10.80;;
56860;SDS011;42744;51.094;3.490;2022-10-14T15:51:40;13.10;;;10.83;;
56860;SDS011;42744;51.094;3.490;2022-10-14T15:54:10;14.37;;;11.67;;
56860;SDS011;42744;51.094;3.490;2022-10-14T15:56:37;16.40;;;12.10;;
56860;SDS011;42744;51.094;3.490;2022-10-14T15:59:05;17.37;;;10.50;;
56860;SDS011;42744;51.094;3.490;2022-10-14T16:01:32;17.97;;;11.43;;
56860;SDS011;42744;51.094;3.490;2022-10-14T16:04:01;14.87;;;11.80;;
56860;SDS011;42744;51.094;3.490;2022-10-14T16:06:28;12.97;;;11.30;;
56860;SDS011;42744;51.094;3.490;2022-10-14T16:08:56;16.57;;;11.37;;
56860;SDS011;42744;51.094;3.490;2022-10-14T16:11:25;20.20;;;11.60;;
56860;SDS011;42744;51.094;3.490;2022-10-14T16:13:53;13.67;;;11.97;;
56860;SDS011;42744;51.094;3.490;2022-10-14T16:16:41;16.27;;;11.40;;
56860;SDS011;42744;51.094;3.490;2022-10-14T16:19:08;15.23;;;10.53;;
56860;SDS011;42744;51.094;3.490;2022-10-14T16:21:37;15.03;;;11.47;;
56860;SDS011;42744;51.094;3.490;2022-10-14T16:24:04;14.57;;;11.07;;
56860;SDS011;42744;51.094;3.490;2022-10-14T16:26:32;12.70;;;11.00;;
56860;SDS011;42744;51.094;3.490;2022-10-14T16:28:57;14.53;;;11.40;;
56860;SDS011;42744;51.094;3.490;2022-10-14T16:31:24;16.87;;;12.83;;
56860;SDS011;42744;51.094;3.490;2022-10-14T16:33:51;17.83;;;11.57;;
56860;SDS011;42744;51.094;3.490;2022-10-14T16:36:21;14.73;;;11.63;;
56860;SDS011;42744;51.094;3.490;2022-10-14T16:38:48;15.57;;;12.03;;
56860;SDS011;42744;51.094;3.490;2022-10-14T16:41:15;15.87;;;12.20;;
56860;SDS011;42744;51.094;3.490;2022-10-14T16:43:41;16.80;;;12.63;;
56860;SDS011;42744;51.094;3.490;2022-10-14T16:46:07;17.60;;;12.20;;
56860;SDS011;42744;51.094;3.490;2022-10-14T16:48:34;16.00;;;12.47;;
56860;SDS011;42744;51.094;3.490;2022-10-14T16:51:00;16.77;;;13.00;;
56860;SDS011;42744;51.094;3.490;2022-10-14T16:53:28;15.10;;;13.10;;
56860;SDS011;42744;51.094;3.490;2022-10-14T16:56:14;16.20;;;13.07;;
56860;SDS011;42744;51.094;3.490;2022-10-14T16:59:00;16.60;;;14.20;;